Time;durP1;ratioP1;P1;durP2;ratioP2;P2;SDS_P1;SDS_P2;PMS_P1;PMS_P2;Temp;Humidity;BMP_temperature;BMP_pressure;BME280_temperature;BME280_humidity;BME280_pressure;Samples;Min_cycle;Max_cycle;Signal;HPM_P1;HPM_P2
2022/09/18 00:01:50;;;;;;;10.53;3.17;;;;;;;7.24;100.00;96194.44;5061211;28;20482;-77
2022/09/18 00:04:15;;;;;;;7.87;3.23;;;;;;;7.30;100.00;96188.66;5052193;28;20110;-76
2022/09/18 00:06:44;;;;;;;7.33;2.77;;;;;;;7.35;100.00;96193.50;5067602;28;20066;-76
2022/09/18 00:09:13;;;;;;;12.73;3.00;;;;;;;7.36;100.00;96195.16;5067889;28;20032;-76
2022/09/18 00:11:42;;;;;;;7.70;3.63;;;;;;;7.40;100.00;96191.28;5069662;28;20108;-76
2022/09/18 00:14:10;;;;;;;4.67;2.23;;;;;;;7.43;100.00;96196.22;5068354;28;20067;-75
2022/09/18 00:16:36;;;;;;;8.67;2.57;;;;;;;7.45;100.00;96196.94;5053650;28;20028;-76
2022/09/18 00:19:03;;;;;;;9.50;2.70;;;;;;;7.43;100.00;96199.66;5069037;28;20035;-77
2022/09/18 00:21:30;;;;;;;7.37;2.40;;;;;;;7.45;100.00;96189.91;5068187;28;20047;-75
2022/09/18 00:23:58;;;;;;;9.37;2.33;;;;;;;7.48;100.00;96197.47;5069061;28;20758;-76
2022/09/18 00:26:25;;;;;;;9.67;2.10;;;;;;;7.54;100.00;96191.69;5051234;28;20029;-76
2022/09/18 00:28:51;;;;;;;11.60;2.50;;;;;;;7.55;100.00;96200.34;5059459;28;20037;-76
2022/09/18 00:31:20;;;;;;;8.53;2.60;;;;;;;7.52;100.00;96198.81;5051779;28;20020;-76
2022/09/18 00:33:46;;;;;;;9.13;2.60;;;;;;;7.52;100.00;96200.63;5069243;28;20036;-75
2022/09/18 00:36:14;;;;;;;9.17;2.30;;;;;;;7.57;100.00;96198.41;5058961;28;20299;-76
2022/09/18 00:38:40;;;;;;;7.60;2.33;;;;;;;7.57;100.00;96203.63;5067733;28;20028;-75
2022/09/18 00:41:16;;;;;;;5.77;2.13;;;;;;;7.53;100.00;96197.03;5067839;28;20623;-76
2022/09/18 00:43:42;;;;;;;4.40;1.80;;;;;;;7.67;100.00;96201.81;5068272;28;20020;-76
2022/09/18 00:46:20;;;;;;;12.37;4.00;;;;;;;7.57;100.00;96201.00;5068908;28;20040;-76
2022/09/18 00:48:53;;;;;;;10.80;3.23;;;;;;;7.55;100.00;96203.78;5067804;28;20040;-76
2022/09/18 00:51:19;;;;;;;8.57;2.42;;;;;;;7.60;100.00;96199.91;5067343;28;20397;-76
2022/09/18 00:53:54;;;;;;;7.73;2.17;;;;;;;7.51;100.00;96205.03;5064356;28;20032;-76
2022/09/18 00:56:20;;;;;;;6.47;2.30;;;;;;;7.60;100.00;96202.53;5063893;28;20032;-76
2022/09/18 00:58:46;;;;;;;8.60;2.47;;;;;;;7.55;100.00;96206.41;5051183;28;20063;-76
2022/09/18 01:01:12;;;;;;;9.23;2.30;;;;;;;7.59;100.00;96204.31;5057788;28;20036;-76
2022/09/18 01:03:37;;;;;;;8.17;2.30;;;;;;;7.57;100.00;96203.63;5066087;28;20020;-75
2022/09/18 01:06:14;;;;;;;6.27;1.90;;;;;;;7.56;100.00;96207.22;5062342;28;20417;-76
2022/09/18 01:08:59;;;;;;;7.47;2.43;;;;;;;7.62;100.00;96211.91;5066854;28;20090;-76
2022/09/18 01:11:38;;;;;;;9.40;2.10;;;;;;;7.64;100.00;96209.13;5063179;28;20051;-76
2022/09/18 01:14:19;;;;;;;4.87;2.10;;;;;;;7.67;100.00;96206.22;5068446;28;20039;-75
2022/09/18 01:17:14;;;;;;;8.97;2.23;;;;;;;7.62;100.00;96204.03;5066775;28;20036;-76
2022/09/18 01:20:06;;;;;;;9.00;2.07;;;;;;;7.55;100.00;96209.00;5063332;28;20382;-77
2022/09/18 01:23:19;;;;;;;9.10;2.30;;;;;;;7.55;100.00;96208.19;5061842;28;20032;-77
2022/09/18 01:25:54;;;;;;;7.37;2.23;;;;;;;7.59;100.00;96208.75;5045337;28;20049;-76
2022/09/18 01:28:25;;;;;;;7.80;3.43;;;;;;;7.59;100.00;96206.94;5058689;28;20032;-76
2022/09/18 01:30:56;;;;;;;7.83;2.40;;;;;;;7.63;100.00;96200.44;5058462;28;20032;-76
2022/09/18 01:34:00;;;;;;;7.53;2.43;;;;;;;7.55;100.00;96208.19;5065717;28;20070;-76
2022/09/18 01:36:29;;;;;;;;;;;;;;;7.52;100.00;96206.69;5032035;28;20024;-76
2022/09/18 01:39:19;;;;;;;9.17;2.20;;;;;;;7.50;100.00;96210.41;5063326;28;19908;-76
2022/09/18 01:41:50;;;;;;;8.20;2.43;;;;;;;7.53;100.00;96212.72;5055886;28;20045;-76
2022/09/18 01:44:23;;;;;;;9.17;2.13;;;;;;;7.51;100.00;96206.81;5064246;28;20513;-76
2022/09/18 01:46:49;;;;;;;7.50;2.40;;;;;;;7.57;100.00;96203.63;5065985;28;20035;-75
2022/09/18 01:49:24;;;;;;;6.43;2.43;;;;;;;7.57;100.00;96201.00;5066561;28;20029;-76
2022/09/18 01:51:59;;;;;;;6.72;2.13;;;;;;;7.53;100.00;96200.47;5059948;28;20684;-75
2022/09/18 01:54:29;;;;;;;10.57;2.83;;;;;;;7.52;100.00;96193.59;5063814;28;20028;-76
2022/09/18 01:57:02;;;;;;;10.63;2.50;;;;;;;7.52;100.00;96196.22;5065855;28;20090;-76
2022/09/18 01:59:35;;;;;;;5.93;1.75;;;;;;;7.42;100.00;96203.25;5046638;28;20036;-76
2022/09/18 02:02:12;;;;;;;9.77;1.90;;;;;;;7.46;100.00;96203.81;5052022;28;20068;-76
2022/09/18 02:04:41;;;;;;;10.47;2.90;;;;;;;7.49;100.00;96201.72;5069350;28;20127;-76
2022/09/18 02:07:26;;;;;;;6.77;2.10;;;;;;;7.42;100.00;96202.44;5048981;28;20040;-76
2022/09/18 02:09:52;;;;;;;8.17;1.90;;;;;;;7.48;100.00;96212.34;5062237;28;20086;-75
2022/09/18 02:12:25;;;;;;;8.07;3.03;;;;;;;7.41;100.00;96206.84;5068317;28;20016;-75
2022/09/18 02:14:59;;;;;;;7.47;2.60;;;;;;;7.39;100.00;96210.56;5064363;28;20037;-76
2022/09/18 02:18:06;;;;;;;10.03;2.53;;;;;;;7.48;100.00;96209.72;5067179;28;20047;-75
2022/09/18 02:20:41;;;;;;;6.47;2.47;;;;;;;7.35;100.00;96198.72;5052606;28;20052;-75
2022/09/18 02:23:07;;;;;;;8.53;2.03;;;;;;;7.27;100.00;96199.41;5062808;28;20036;-76
2022/09/18 02:25:51;;;;;;;8.73;2.30;;;;;;;7.31;100.00;96193.78;5050742;28;20025;-76
2022/09/18 02:28:21;;;;;;;6.97;2.20;;;;;;;7.27;100.00;96207.25;5057183;28;20048;-76
2022/09/18 02:30:46;;;;;;;9.20;2.30;;;;;;;7.22;100.00;96199.84;5071973;28;20662;-76
2022/09/18 02:33:27;;;;;;;7.10;2.83;;;;;;;7.20;100.00;96204.38;5048690;28;20063;-76
2022/09/18 02:36:31;;;;;;;9.77;3.20;;;;;;;7.16;100.00;96196.94;5054475;28;20717;-76
2022/09/18 02:39:07;;;;;;;;;;;;;;;7.18;100.00;96203.69;5060912;28;20048;-76
2022/09/18 02:42:03;;;;;;;7.70;2.17;;;;;;;7.15;100.00;96197.94;5051938;28;19923;-76
2022/09/18 02:44:32;;;;;;;8.17;2.20;;;;;;;7.08;100.00;96193.25;5050467;28;20051;-75
2022/09/18 02:47:14;;;;;;;6.83;2.30;;;;;;;7.05;100.00;96197.94;5048111;28;20033;-76
2022/09/18 02:49:54;;;;;;;6.53;2.30;;;;;;;7.16;100.00;96195.16;5084125;28;20042;-76
2022/09/18 02:52:32;;;;;;;5.33;2.63;;;;;;;7.08;100.00;96189.81;5058700;28;20028;-76
2022/09/18 02:55:11;;;;;;;7.90;2.37;;;;;;;7.10;100.00;96187.88;5055384;28;20040;-76
2022/09/18 02:57:45;;;;;;;7.97;2.20;;;;;;;7.13;100.00;96194.63;5066496;28;20142;-76
2022/09/18 03:00:15;;;;;;;9.40;2.80;;;;;;;7.07;100.00;96195.97;5065374;28;20032;-76
2022/09/18 03:02:42;;;;;;;6.30;3.00;;;;;;;7.12;100.00;96196.41;5066486;28;20135;-76
2022/09/18 03:05:08;;;;;;;9.03;2.47;;;;;;;7.14;100.00;96197.06;5066017;28;20400;-76
2022/09/18 03:07:49;;;;;;;7.77;2.23;;;;;;;7.09;100.00;96188.84;5063579;28;20172;-76
2022/09/18 03:10:15;;;;;;;6.90;1.87;;;;;;;7.13;100.00;96203.28;5058149;28;20816;-76
2022/09/18 03:12:40;;;;;;;10.53;2.37;;;;;;;7.04;100.00;96189.25;5040481;28;20028;-76
2022/09/18 03:15:07;;;;;;;5.60;2.23;;;;;;;7.14;100.00;96184.00;5048809;28;20485;-76
2022/09/18 03:17:34;;;;;;;5.23;2.10;;;;;;;7.09;100.00;96194.06;5062518;28;20036;-76
2022/09/18 03:20:01;;;;;;;8.17;2.13;;;;;;;7.07;100.00;96185.53;5054957;28;20112;-76
2022/09/18 03:22:27;;;;;;;9.07;2.60;;;;;;;7.09;100.00;96183.59;5054251;28;20072;-76
2022/09/18 03:24:53;;;;;;;9.60;3.00;;;;;;;7.15;100.00;96188.28;5070439;28;20056;-76
2022/09/18 03:27:20;;;;;;;7.33;2.67;;;;;;;7.06;100.00;96182.09;5064671;28;20036;-76
2022/09/18 03:29:45;;;;;;;7.17;1.70;;;;;;;7.06;100.00;96182.09;5062979;28;20050;-76
2022/09/18 03:32:11;;;;;;;5.17;1.90;;;;;;;7.08;100.00;96187.19;5063435;28;20029;-77
2022/09/18 03:34:44;;;;;;;5.88;1.45;;;;;;;7.01;100.00;96183.50;5070289;28;20545;-76
2022/09/18 03:37:10;;;;;;;10.03;1.63;;;;;;;7.01;100.00;96194.78;5059879;28;20035;-76
2022/09/18 03:39:35;;;;;;;7.53;2.10;;;;;;;7.00;100.00;96189.66;5071969;28;20025;-76
2022/09/18 03:42:03;;;;;;;5.97;1.83;;;;;;;7.04;100.00;96188.41;5055568;28;20032;-76
2022/09/18 03:44:30;;;;;;;8.03;2.17;;;;;;;7.03;100.00;96186.78;5064379;28;20021;-76
2022/09/18 03:46:58;;;;;;;5.67;1.80;;;;;;;7.11;100.00;96186.91;5054675;28;20032;-76
2022/09/18 03:49:25;;;;;;;4.60;1.83;;;;;;;7.07;100.00;96190.75;5057330;28;20075;-76
2022/09/18 03:51:53;;;;;;;7.13;2.10;;;;;;;7.04;100.00;96193.66;5072032;28;20037;-76
2022/09/18 03:54:18;;;;;;;8.63;2.13;;;;;;;7.09;100.00;96194.06;5051109;28;20061;-76
2022/09/18 03:57:13;;;;;;;9.40;2.20;;;;;;;7.08;100.00;96197.66;5070626;28;20417;-76
2022/09/18 03:59:53;;;;;;;7.90;2.27;;;;;;;7.02;100.00;96199.03;5069769;28;20040;-76
2022/09/18 04:02:20;;;;;;;5.67;2.23;;;;;;;7.05;100.00;96205.78;5063425;28;20051;-76
2022/09/18 04:05:08;;;;;;;7.73;2.43;;;;;;;7.06;100.00;96199.56;5069771;28;20063;-76
2022/09/18 04:07:53;;;;;;;4.67;1.87;;;;;;;7.02;100.00;96201.63;5070671;28;20059;-76
2022/09/18 04:10:41;;;;;;;5.53;1.80;;;;;;;7.05;100.00;96211.00;5071780;28;20104;-76
2022/09/18 04:13:07;;;;;;;5.17;2.17;;;;;;;7.05;100.00;96206.59;5071316;28;20505;-76
2022/09/18 04:15:35;;;;;;;8.07;4.17;;;;;;;7.06;100.00;96199.56;5049756;28;20029;-76
2022/09/18 04:18:00;;;;;;;8.10;2.73;;;;;;;7.09;100.00;96205.34;5071329;28;20040;-75
2022/09/18 04:20:29;;;;;;;8.60;2.97;;;;;;;7.14;100.00;96204.91;5071629;28;20024;-76
2022/09/18 04:22:57;;;;;;;5.77;2.57;;;;;;;7.18;100.00;96202.88;5065302;28;20028;-76
2022/09/18 04:25:22;;;;;;;5.00;2.20;;;;;;;7.09;100.00;96200.13;5071101;28;20025;-76
2022/09/18 04:27:48;;;;;;;8.50;2.50;;;;;;;7.16;100.00;96200.38;5056760;28;20086;-75
2022/09/18 04:30:16;;;;;;;6.33;2.00;;;;;;;7.18;100.00;96203.69;5060700;28;20079;-76
2022/09/18 04:32:44;;;;;;;6.27;2.20;;;;;;;7.16;100.00;96205.63;5064147;28;20121;-75
2022/09/18 04:35:11;;;;;;;6.93;2.30;;;;;;;7.21;100.00;96205.19;5065460;28;20016;-76
2022/09/18 04:37:37;;;;;;;4.77;1.77;;;;;;;7.19;100.00;96200.13;5067781;28;20390;-75
2022/09/18 04:40:05;;;;;;;6.03;2.27;;;;;;;7.20;100.00;96206.16;5068355;28;20048;-75
2022/09/18 04:42:31;;;;;;;5.77;2.47;;;;;;;7.20;100.00;96198.31;5064311;28;20051;-75
2022/09/18 04:44:57;;;;;;;5.07;2.27;;;;;;;7.23;100.00;96205.88;5065871;28;20059;-76
2022/09/18 04:47:22;;;;;;;4.67;2.20;;;;;;;7.24;100.00;96192.69;5056202;28;20118;-75
2022/09/18 04:49:48;;;;;;;6.57;2.53;;;;;;;7.29;100.00;96198.31;5065087;28;20089;-76
2022/09/18 04:52:14;;;;;;;5.87;2.30;;;;;;;7.27;100.00;96202.03;5067853;28;20028;-76
2022/09/18 04:54:40;;;;;;;6.60;2.13;;;;;;;7.26;100.00;96206.44;5067737;28;20056;-75
2022/09/18 04:57:07;;;;;;;6.57;2.27;;;;;;;7.26;100.00;96205.63;5066895;28;20035;-76
2022/09/18 04:59:34;;;;;;;6.33;2.13;;;;;;;7.25;100.00;96204.78;5066638;28;20085;-75
2022/09/18 05:02:00;;;;;;;3.97;2.07;;;;;;;7.24;100.00;96208.38;5049811;28;20028;-75
2022/09/18 05:04:25;;;;;;;9.00;2.33;;;;;;;7.26;100.00;96203.00;5067504;28;20457;-75
2022/09/18 05:07:00;;;;;;;6.07;2.30;;;;;;;7.28;100.00;96214.97;5061763;28;20028;-75
2022/09/18 05:09:26;;;;;;;6.13;2.20;;;;;;;7.26;100.00;96216.91;5067328;28;20029;-75
2022/09/18 05:11:53;;;;;;;6.13;2.10;;;;;;;7.26;100.00;96214.28;5067381;28;20090;-76
2022/09/18 05:14:22;;;;;;;5.63;2.50;;;;;;;7.28;100.00;96209.75;5058436;28;20029;-76
2022/09/18 05:16:50;;;;;;;3.53;1.93;;;;;;;7.32;100.00;96216.34;5063727;28;20433;-75
2022/09/18 05:19:25;;;;;;;14.47;4.37;;;;;;;7.35;100.00;96220.47;5053110;28;20775;-75
2022/09/18 05:21:58;;;;;;;3.93;2.13;;;;;;;7.31;100.00;96219.94;5049430;28;20552;-75
2022/09/18 05:24:23;;;;;;;5.43;1.70;;;;;;;7.32;100.00;96226.00;5058101;28;20119;-76
2022/09/18 05:26:49;;;;;;;6.13;1.80;;;;;;;7.31;100.00;96225.16;5067057;28;20028;-75
2022/09/18 05:29:18;;;;;;;6.30;2.27;;;;;;;7.32;100.00;96234.66;5062398;28;20035;-75
2022/09/18 05:31:44;;;;;;;5.60;2.20;;;;;;;7.35;100.00;96232.75;5062801;28;20032;-75
2022/09/18 05:34:09;;;;;;;6.70;2.63;;;;;;;7.32;100.00;96229.44;5043598;28;20013;-75
2022/09/18 05:36:35;;;;;;;6.17;2.03;;;;;;;7.36;100.00;96229.97;5050299;28;20035;-76
2022/09/18 05:39:01;;;;;;;5.63;2.27;;;;;;;7.42;100.00;96232.03;5049850;28;20044;-77
2022/09/18 05:41:27;;;;;;;6.93;2.00;;;;;;;7.37;100.00;96222.94;5059391;28;20032;-77
2022/09/18 05:43:54;;;;;;;8.13;2.80;;;;;;;7.37;100.00;96234.22;5067943;28;20752;-76
2022/09/18 05:46:19;;;;;;;18.80;7.30;;;;;;;7.37;100.00;96238.63;5066706;28;20028;-77
2022/09/18 05:48:53;;;;;;;14.55;7.60;;;;;;;7.36;100.00;96235.22;5064495;28;20038;-78
2022/09/18 05:51:19;;;;;;;4.23;3.27;;;;;;;7.41;100.00;96229.53;5066762;28;20033;-77
2022/09/18 05:53:47;;;;;;;9.23;2.70;;;;;;;7.44;100.00;96232.69;5066900;28;20499;-77
2022/09/18 05:56:22;;;;;;;5.53;2.60;;;;;;;7.49;100.00;96238.34;5045955;28;20025;-77
2022/09/18 05:58:48;;;;;;;6.77;2.87;;;;;;;7.52;100.00;96242.50;5055168;28;20033;-77
2022/09/18 06:01:13;;;;;;;8.23;3.37;;;;;;;7.52;100.00;96240.69;5043839;28;20036;-77
2022/09/18 06:04:08;;;;;;;5.57;2.27;;;;;;;7.51;100.00;96241.66;5062472;28;20119;-78
2022/09/18 06:06:42;;;;;;;6.00;2.13;;;;;;;7.51;100.00;96244.28;5066233;28;20389;-77
2022/09/18 06:09:09;;;;;;;4.60;2.10;;;;;;;7.50;100.00;96239.19;5070173;28;20132;-77
2022/09/18 06:11:34;;;;;;;5.23;1.80;;;;;;;7.56;100.00;96239.44;5049654;28;20193;-77
2022/09/18 06:14:00;;;;;;;5.27;2.57;;;;;;;7.55;100.00;96239.59;5066552;28;20039;-77
2022/09/18 06:16:27;;;;;;;4.90;2.23;;;;;;;7.55;100.00;96237.81;5064104;28;20036;-77
2022/09/18 06:18:58;;;;;;;4.53;1.90;;;;;;;7.60;100.00;96245.22;5063100;28;20123;-76
2022/09/18 06:21:24;;;;;;;3.50;1.83;;;;;;;7.60;100.00;96240.00;5070658;28;20548;-75
2022/09/18 06:23:49;;;;;;;4.53;1.63;;;;;;;7.51;100.00;96246.06;5061406;28;20032;-75
2022/09/18 06:26:26;;;;;;;6.20;2.13;;;;;;;7.50;100.00;96245.22;5065146;28;20485;-75
2022/09/18 06:28:52;;;;;;;5.17;1.83;;;;;;;7.48;100.00;96251.59;5062289;28;20037;-75
2022/09/18 06:31:18;;;;;;;4.00;1.80;;;;;;;7.59;100.00;96259.28;5067703;28;20064;-78
2022/09/18 06:33:52;;;;;;;6.57;2.10;;;;;;;7.54;100.00;96258.84;5065474;28;20060;-77
2022/09/18 06:36:18;;;;;;;3.93;2.00;;;;;;;7.50;100.00;96257.50;5065170;28;20097;-77
2022/09/18 06:38:59;;;;;;;3.80;1.80;;;;;;;7.54;100.00;96254.47;5059331;28;20060;-75
2022/09/18 06:41:25;;;;;;;3.67;1.50;;;;;;;7.54;100.00;96254.47;5064787;28;20036;-75
2022/09/18 06:43:52;;;;;;;3.63;1.60;;;;;;;7.51;100.00;96257.38;5065202;28;20027;-75
2022/09/18 06:46:38;;;;;;;3.17;1.57;;;;;;;7.68;100.00;96252.38;5055243;28;20039;-75
2022/09/18 06:49:15;;;;;;;6.07;2.07;;;;;;;7.61;100.00;96251.28;5050483;28;20028;-75
2022/09/18 06:51:44;;;;;;;5.60;1.70;;;;;;;7.62;100.00;96247.72;5065853;28;20115;-75
2022/09/18 06:54:12;;;;;;;8.67;3.10;;;;;;;7.72;100.00;96244.09;5053759;28;20048;-74
2022/09/18 06:56:39;;;;;;;5.07;2.93;;;;;;;7.77;100.00;96248.91;5064857;28;20036;-75
2022/09/18 06:59:08;;;;;;;5.80;1.87;;;;;;;7.77;100.00;96246.28;5065549;28;20051;-75
2022/09/18 07:01:35;;;;;;;3.80;2.03;;;;;;;7.78;100.00;96246.16;5064954;28;20016;-75
2022/09/18 07:04:08;;;;;;;3.70;2.20;;;;;;;7.82;100.00;96253.75;5049861;28;20033;-75
2022/09/18 07:06:39;;;;;;;5.33;2.00;;;;;;;7.91;100.00;96250.25;5065363;28;20573;-75
2022/09/18 07:09:05;;;;;;;5.00;1.97;;;;;;;7.92;100.00;96250.13;5048244;28;20036;-75
2022/09/18 07:11:49;;;;;;;3.93;2.17;;;;;;;7.93;100.00;96245.69;5064720;28;20059;-75
2022/09/18 07:14:15;;;;;;;4.83;2.77;;;;;;;8.07;100.00;96240.00;5060337;28;20517;-75
2022/09/18 07:16:41;;;;;;;5.30;2.03;;;;;;;8.03;100.00;96247.31;5066745;28;20028;-75
2022/09/18 07:19:06;;;;;;;3.93;1.90;;;;;;;8.04;100.00;96248.13;5056442;28;20025;-75
2022/09/18 07:21:33;;;;;;;5.13;2.63;;;;;;;8.08;100.00;96246.06;5063328;28;20508;-75
2022/09/18 07:23:59;;;;;;;3.97;2.13;;;;;;;8.11;100.00;96245.78;5063016;28;20037;-76
2022/09/18 07:26:25;;;;;;;5.47;2.30;;;;;;;8.26;100.00;96250.41;5062432;28;20025;-75
2022/09/18 07:28:51;;;;;;;3.53;2.10;;;;;;;8.22;100.00;96251.66;5064106;28;20032;-75
2022/09/18 07:31:22;;;;;;;4.27;2.00;;;;;;;8.17;100.00;96250.44;5065839;28;20115;-75
2022/09/18 07:33:53;;;;;;;4.93;2.10;;;;;;;8.24;100.00;96257.56;5070145;28;20043;-74
2022/09/18 07:36:22;;;;;;;;;;;;;;;8.33;100.00;96252.44;5063852;28;20040;-75
2022/09/18 07:38:51;;;;;;;5.80;2.43;;;;;;;8.26;100.00;96263.50;5067921;28;20427;-75
2022/09/18 07:41:18;;;;;;;3.20;2.10;;;;;;;8.36;100.00;96265.28;5065340;28;20028;-75
2022/09/18 07:43:44;;;;;;;4.17;2.57;;;;;;;8.30;100.00;96256.19;5065389;28;20095;-75
2022/09/18 07:46:10;;;;;;;5.17;2.00;;;;;;;8.37;100.00;96265.09;5047083;28;20029;-75
2022/09/18 07:48:38;;;;;;;3.37;1.93;;;;;;;8.27;100.00;96259.09;5067470;28;20090;-75
2022/09/18 07:51:15;;;;;;;3.23;2.23;;;;;;;8.30;100.00;96263.22;5069088;28;20035;-74
2022/09/18 07:53:43;;;;;;;6.57;2.40;;;;;;;8.22;100.00;96258.72;5069134;28;20086;-75
2022/09/18 07:56:11;;;;;;;4.57;2.20;;;;;;;8.27;100.00;96267.75;5064537;28;20086;-75
2022/09/18 07:58:38;;;;;;;4.87;2.67;;;;;;;8.26;100.00;96270.53;5059231;28;20027;-75
2022/09/18 08:01:09;;;;;;;5.03;2.47;;;;;;;8.26;100.00;96267.94;5060515;28;20032;-74
2022/09/18 08:03:50;;;;;;;5.60;3.20;;;;;;;8.06;100.00;96267.16;5066917;28;20036;-74
2022/09/18 08:06:36;;;;;;;5.13;2.60;;;;;;;8.15;100.00;96270.72;5070647;28;20402;-74
2022/09/18 08:09:10;;;;;;;6.40;2.40;;;;;;;8.12;100.00;96282.31;5069384;28;20116;-74
2022/09/18 08:12:11;;;;;;;9.37;3.17;;;;;;;8.20;100.00;96277.19;5062681;28;20141;-75
2022/09/18 08:14:55;;;;;;;6.37;2.50;;;;;;;8.13;100.00;96277.91;5071042;28;20090;-75
2022/09/18 08:17:25;;;;;;;7.90;3.30;;;;;;;8.20;100.00;96285.03;5075771;28;20024;-75
2022/09/18 08:20:26;;;;;;;5.13;2.53;;;;;;;8.20;100.00;96284.22;5055719;28;20044;-76
2022/09/18 08:22:57;;;;;;;4.47;2.63;;;;;;;8.24;100.00;96281.16;5062144;28;20598;-76
2022/09/18 08:25:26;;;;;;;6.90;2.73;;;;;;;8.25;100.00;96287.25;5068673;28;20375;-76
2022/09/18 08:27:52;;;;;;;9.57;2.77;;;;;;;8.23;100.00;96281.31;5069376;28;20040;-76
2022/09/18 08:30:47;;;;;;;7.37;2.80;;;;;;;8.25;100.00;96282.00;5068347;28;20106;-75
2022/09/18 08:33:13;;;;;;;5.00;2.90;;;;;;;8.22;100.00;96287.53;5051872;28;20025;-75
2022/09/18 08:35:40;;;;;;;5.37;2.67;;;;;;;8.22;100.00;96284.91;5052178;28;20028;-76
2022/09/18 08:38:17;;;;;;;5.50;2.27;;;;;;;8.19;100.00;96285.19;5053938;28;20075;-76
2022/09/18 08:41:39;;;;;;;5.18;2.30;;;;;;;8.17;100.00;96284.50;5071188;28;20055;-75
2022/09/18 08:44:15;;;;;;;6.73;2.77;;;;;;;8.24;100.00;96281.16;5045922;28;20056;-76
2022/09/18 08:46:48;;;;;;;4.87;2.40;;;;;;;8.41;100.00;96281.41;5053375;28;20115;-75
2022/09/18 08:49:17;;;;;;;5.25;2.83;;;;;;;8.49;100.00;96277.09;5051526;28;20442;-76
2022/09/18 08:52:10;;;;;;;6.37;2.27;;;;;;;8.46;100.00;96279.19;5055607;28;20871;-76
2022/09/18 08:55:00;;;;;;;4.60;2.17;;;;;;;8.50;100.00;96283.16;5068461;28;20056;-75
2022/09/18 08:58:05;;;;;;;5.20;2.07;;;;;;;8.56;100.00;96273.91;5060100;28;20340;-76
2022/09/18 09:00:47;;;;;;;2.90;1.40;;;;;;;8.61;100.00;96272.47;5046870;28;20051;-76
2022/09/18 09:03:38;;;;;;;6.07;2.60;;;;;;;8.80;100.00;96281.22;5067994;28;20036;-74
2022/09/18 09:06:31;;;;;;;5.17;2.40;;;;;;;8.87;100.00;96275.22;5064572;28;20052;-78
2022/09/18 09:09:41;;;;;;;3.50;1.80;;;;;;;8.88;100.00;96269.00;5057886;28;20139;-77
2022/09/18 09:12:13;;;;;;;7.73;2.63;;;;;;;8.87;100.00;96272.59;5050262;28;20036;-76
2022/09/18 09:15:04;;;;;;;7.10;2.70;;;;;;;8.75;100.00;96265.91;5047536;28;20116;-76
2022/09/18 09:17:51;;;;;;;2.83;1.50;;;;;;;8.82;100.00;96284.50;5066411;28;20097;-75
2022/09/18 09:20:40;;;;;;;5.63;2.40;;;;;;;8.65;100.00;96283.50;5064161;28;20397;-75
2022/09/18 09:23:49;;;;;;;4.67;1.90;;;;;;;8.56;100.00;96285.22;5066049;28;20043;-76
2022/09/18 09:26:41;;;;;;;3.07;1.50;;;;;;;8.58;100.00;96279.81;5064245;28;20106;-75
2022/09/18 09:29:35;;;;;;;10.07;3.60;;;;;;;8.74;100.00;96283.44;5058121;28;20044;-76
2022/09/18 09:32:56;;;;;;;14.30;4.97;;;;;;;8.60;100.00;96290.97;5076364;28;20066;-75
2022/09/18 09:35:53;;;;;;;7.30;4.50;;;;;;;8.70;100.00;96291.75;5056265;28;20904;-76
2022/09/18 09:38:50;;;;;;;4.23;2.60;;;;;;;8.55;100.00;96286.19;5056010;28;20024;-75
2022/09/18 09:41:24;;;;;;;5.03;2.33;;;;;;;8.53;100.00;96295.97;5063851;28;20794;-75
2022/09/18 09:44:03;;;;;;;7.13;3.37;;;;;;;8.56;100.00;96290.44;5068346;28;20047;-75
2022/09/18 09:46:53;;;;;;;6.67;2.80;;;;;;;8.52;100.00;96294.34;5048739;28;20511;-76
2022/09/18 09:49:38;;;;;;;8.47;4.60;;;;;;;8.60;100.00;96290.97;5066153;28;20028;-75
2022/09/18 09:52:26;;;;;;;7.07;3.23;;;;;;;8.78;100.00;96288.41;5065623;28;20047;-75
2022/09/18 09:55:06;;;;;;;7.80;6.50;;;;;;;8.78;100.00;96293.63;5065603;28;20035;-75
2022/09/18 09:58:10;;;;;;;7.53;3.70;;;;;;;8.85;100.00;96290.31;5067255;28;20111;-76
2022/09/18 10:00:51;;;;;;;4.70;2.60;;;;;;;8.93;100.00;96286.94;5072404;28;20116;-75
2022/09/18 10:03:30;;;;;;;6.07;2.90;;;;;;;9.23;100.00;96284.94;5069535;28;20044;-75
2022/09/18 10:06:09;;;;;;;4.60;2.40;;;;;;;9.09;100.00;96278.41;5056396;28;20036;-75
2022/09/18 10:08:49;;;;;;;4.10;2.00;;;;;;;9.32;100.00;96287.50;5052655;28;21385;-76
2022/09/18 10:11:16;;;;;;;6.70;3.13;;;;;;;9.32;100.00;96281.41;5022064;28;20036;-78
2022/09/18 10:13:54;;;;;;;;;;;;;;;9.24;100.00;96289.22;5021230;28;20025;-76
2022/09/18 10:16:22;;;;;;;6.13;2.67;;;;;;;9.20;100.00;96284.25;5023819;28;19965;-77
2022/09/18 10:18:49;;;;;;;7.93;4.30;;;;;;;9.37;100.00;96277.38;5036572;28;20086;-76
2022/09/18 10:21:17;;;;;;;7.07;3.70;;;;;;;9.41;100.00;96280.50;5045553;28;20120;-75
2022/09/18 10:24:07;;;;;;;6.43;3.70;;;;;;;9.41;100.00;96275.25;5043773;28;20043;-76
2022/09/18 10:26:57;;;;;;;5.73;2.47;;;;;;;9.58;100.00;96279.66;5035976;28;20123;-75
2022/09/18 10:29:22;;;;;;;10.43;4.10;;;;;;;9.64;100.00;96273.81;5055125;28;20098;-75
2022/09/18 10:31:54;;;;;;;10.53;4.13;;;;;;;9.70;100.00;96271.56;5042849;28;20033;-75
2022/09/18 10:34:44;;;;;;;5.37;2.10;;;;;;;9.57;100.00;96264.91;5038816;28;20029;-75
2022/09/18 10:37:15;;;;;;;4.17;2.40;;;;;;;9.67;100.00;96270.06;5028643;28;20063;-76
2022/09/18 10:39:53;;;;;;;5.30;2.10;;;;;;;9.64;100.00;96265.94;5020777;28;20036;-76
2022/09/18 10:42:22;;;;;;;13.10;10.80;;;;;;;9.75;100.00;96264.84;5024733;28;20398;-75
2022/09/18 10:45:01;;;;;;;6.00;3.63;;;;;;;10.07;100.00;96260.81;5037037;28;21049;-75
2022/09/18 10:47:31;;;;;;;5.50;3.43;;;;;;;9.98;100.00;96267.81;5034011;28;20028;-76
2022/09/18 10:50:05;;;;;;;5.73;2.10;;;;;;;10.10;100.00;96265.75;5037796;28;20063;-76
2022/09/18 10:52:34;;;;;;;4.93;1.77;;;;;;;10.09;100.00;96270.19;5014480;28;20029;-75
2022/09/18 10:55:05;;;;;;;5.33;2.10;;;;;;;10.24;100.00;96245.97;5015316;28;20039;-75
2022/09/18 10:57:44;;;;;;;6.73;1.70;;;;;;;10.51;100.00;96243.16;4998170;28;20120;-76
2022/09/18 11:00:33;;;;;;;3.77;1.80;;;;;;;10.64;100.00;96249.78;4993827;28;20398;-75
2022/09/18 11:03:22;;;;;;;5.37;1.73;;;;;;;10.57;100.00;96250.41;4991292;28;20040;-75
2022/09/18 11:05:59;;;;;;;4.07;2.37;;;;;;;10.66;100.00;96245.97;4976176;28;20037;-75
2022/09/18 11:08:29;;;;;;;4.63;2.00;;;;;;;11.04;100.00;96226.19;4992346;28;20040;-75
2022/09/18 11:11:12;;;;;;;7.23;1.80;;;;;;;11.05;100.00;96211.22;4966911;28;20040;-76
2022/09/18 11:13:49;;;;;;;5.90;2.07;;;;;;;11.18;100.00;96218.66;4933609;28;20036;-75
2022/09/18 11:16:29;;;;;;;6.17;3.13;;;;;;;11.23;100.00;96221.59;4965709;28;20032;-75
2022/09/18 11:19:35;;;;;;;5.10;2.13;;;;;;;11.27;100.00;96215.88;4957673;28;21583;-75
2022/09/18 11:22:31;;;;;;;13.17;2.87;;;;;;;11.45;100.00;96210.44;4960932;28;20529;-75
2022/09/18 11:25:20;;;;;;;6.70;1.70;;;;;;;11.63;100.00;96214.69;4976065;28;20114;-75
2022/09/18 11:27:57;;;;;;;5.20;1.93;;;;;;;11.83;100.00;96208.06;4988606;28;20050;-74
2022/09/18 11:30:30;;;;;;;4.03;1.20;;;;;;;11.57;100.00;96208.28;5029729;28;22073;-76
2022/09/18 11:33:02;;;;;;;7.60;2.63;;;;;;;11.79;100.00;96199.69;4993986;28;20032;-75
2022/09/18 11:35:30;;;;;;;8.67;2.47;;;;;;;12.16;100.00;96197.47;4988636;28;20124;-75
2022/09/18 11:37:59;;;;;;;4.90;2.20;;;;;;;12.10;100.00;96200.78;4993131;28;20045;-75
2022/09/18 11:40:41;;;;;;;8.27;2.77;;;;;;;12.15;100.00;96194.03;5035404;28;20051;-75
2022/09/18 11:43:31;;;;;;;9.13;3.43;;;;;;;12.35;100.00;96191.00;5039267;28;20044;-76
2022/09/18 11:46:41;;;;;;;6.10;1.67;;;;;;;12.95;100.00;96183.25;5043246;28;20729;-75
2022/09/18 11:49:14;;;;;;;6.30;1.50;;;;;;;12.63;100.00;96172.88;5044660;28;20032;-75
2022/09/18 11:51:55;;;;;;;5.93;1.30;;;;;;;12.47;100.00;96169.34;5027327;28;20037;-76
2022/09/18 11:54:53;;;;;;;8.17;1.33;;;;;;;12.63;100.00;96165.78;5029629;28;20037;-76
2022/09/18 11:57:28;;;;;;;6.55;1.27;;;;;;;12.64;100.00;96163.97;5024255;28;20576;-77
2022/09/18 12:00:08;;;;;;;5.67;1.37;;;;;;;12.62;100.00;96165.97;5043105;28;20043;-76
2022/09/18 12:02:45;;;;;;;4.03;1.23;;;;;;;13.07;100.00;96159.06;5047966;28;20040;-75
2022/09/18 12:05:22;;;;;;;3.53;1.13;;;;;;;13.66;100.00;96164.56;5057237;28;20029;-76
2022/09/18 12:07:53;;;;;;;6.25;1.55;;;;;;;13.62;100.00;96147.44;5055487;28;20040;-75